sensor_id;sensor_type;location;lat;lon;timestamp;P1;durP1;ratioP1;P2;durP2;ratioP2
58768;SDS011;44536;47.474;19.056;2024-02-26T00:01:47;16.42;;;9.27;;
58768;SDS011;44536;47.474;19.056;2024-02-26T00:04:49;15.40;;;8.00;;
58768;SDS011;44536;47.474;19.056;2024-02-26T00:07:51;15.80;;;8.55;;
58768;SDS011;44536;47.474;19.056;2024-02-26T00:10:54;13.05;;;9.20;;
58768;SDS011;44536;47.474;19.056;2024-02-26T00:13:56;14.82;;;9.63;;
58768;SDS011;44536;47.474;19.056;2024-02-26T00:16:58;18.17;;;9.20;;
58768;SDS011;44536;47.474;19.056;2024-02-26T00:20:01;15.30;;;8.20;;
58768;SDS011;44536;47.474;19.056;2024-02-26T00:23:03;14.15;;;7.85;;
58768;SDS011;44536;47.474;19.056;2024-02-26T00:26:05;12.80;;;7.78;;
58768;SDS011;44536;47.474;19.056;2024-02-26T00:29:07;13.93;;;8.18;;
58768;SDS011;44536;47.474;19.056;2024-02-26T00:32:09;18.62;;;10.57;;
58768;SDS011;44536;47.474;19.056;2024-02-26T00:35:11;12.80;;;7.95;;
58768;SDS011;44536;47.474;19.056;2024-02-26T00:38:13;12.75;;;6.75;;
58768;SDS011;44536;47.474;19.056;2024-02-26T00:41:15;17.08;;;8.52;;
58768;SDS011;44536;47.474;19.056;2024-02-26T00:44:17;14.85;;;8.30;;
58768;SDS011;44536;47.474;19.056;2024-02-26T00:47:19;17.90;;;10.38;;
58768;SDS011;44536;47.474;19.056;2024-02-26T00:50:21;14.93;;;8.27;;
58768;SDS011;44536;47.474;19.056;2024-02-26T00:53:23;17.37;;;8.27;;
58768;SDS011;44536;47.474;19.056;2024-02-26T00:56:26;9.02;;;6.30;;
58768;SDS011;44536;47.474;19.056;2024-02-26T00:59:29;17.15;;;8.43;;
58768;SDS011;44536;47.474;19.056;2024-02-26T01:02:30;13.48;;;7.53;;
58768;SDS011;44536;47.474;19.056;2024-02-26T01:05:33;11.75;;;6.50;;
58768;SDS011;44536;47.474;19.056;2024-02-26T01:08:35;22.48;;;7.85;;
58768;SDS011;44536;47.474;19.056;2024-02-26T01:11:37;16.10;;;8.07;;
58768;SDS011;44536;47.474;19.056;2024-02-26T01:14:39;20.17;;;8.25;;
58768;SDS011;44536;47.474;19.056;2024-02-26T01:17:41;14.30;;;7.65;;
58768;SDS011;44536;47.474;19.056;2024-02-26T01:20:44;12.88;;;7.43;;
58768;SDS011;44536;47.474;19.056;2024-02-26T01:23:48;16.65;;;9.75;;
58768;SDS011;44536;47.474;19.056;2024-02-26T01:26:50;16.73;;;8.43;;
58768;SDS011;44536;47.474;19.056;2024-02-26T01:29:52;12.88;;;7.30;;
58768;SDS011;44536;47.474;19.056;2024-02-26T01:32:54;16.25;;;7.32;;
58768;SDS011;44536;47.474;19.056;2024-02-26T01:35:57;8.88;;;5.87;;
58768;SDS011;44536;47.474;19.056;2024-02-26T01:38:59;11.25;;;7.12;;
58768;SDS011;44536;47.474;19.056;2024-02-26T01:42:01;17.33;;;10.13;;
58768;SDS011;44536;47.474;19.056;2024-02-26T01:45:03;10.43;;;7.45;;
58768;SDS011;44536;47.474;19.056;2024-02-26T01:48:06;13.37;;;8.40;;
58768;SDS011;44536;47.474;19.056;2024-02-26T01:51:08;12.35;;;6.28;;
58768;SDS011;44536;47.474;19.056;2024-02-26T01:54:11;14.65;;;8.45;;
58768;SDS011;44536;47.474;19.056;2024-02-26T01:57:13;13.13;;;7.07;;
58768;SDS011;44536;47.474;19.056;2024-02-26T02:00:16;16.42;;;8.50;;
58768;SDS011;44536;47.474;19.056;2024-02-26T02:03:19;15.27;;;7.47;;
58768;SDS011;44536;47.474;19.056;2024-02-26T02:06:21;13.85;;;6.97;;
58768;SDS011;44536;47.474;19.056;2024-02-26T02:09:23;13.88;;;7.32;;
58768;SDS011;44536;47.474;19.056;2024-02-26T02:12:26;14.02;;;7.45;;
58768;SDS011;44536;47.474;19.056;2024-02-26T02:15:29;17.35;;;9.43;;
58768;SDS011;44536;47.474;19.056;2024-02-26T02:18:31;15.05;;;8.70;;
58768;SDS011;44536;47.474;19.056;2024-02-26T02:21:33;17.50;;;8.65;;
58768;SDS011;44536;47.474;19.056;2024-02-26T02:24:35;13.32;;;8.05;;
58768;SDS011;44536;47.474;19.056;2024-02-26T02:27:37;9.63;;;6.30;;
58768;SDS011;44536;47.474;19.056;2024-02-26T02:30:39;14.77;;;7.20;;
58768;SDS011;44536;47.474;19.056;2024-02-26T02:33:42;11.18;;;6.72;;
58768;SDS011;44536;47.474;19.056;2024-02-26T02:36:48;14.82;;;7.28;;
58768;SDS011;44536;47.474;19.056;2024-02-26T02:39:50;18.85;;;8.68;;
58768;SDS011;44536;47.474;19.056;2024-02-26T02:42:53;16.90;;;10.45;;
58768;SDS011;44536;47.474;19.056;2024-02-26T02:45:55;13.38;;;9.88;;
58768;SDS011;44536;47.474;19.056;2024-02-26T02:48:57;14.40;;;7.72;;
58768;SDS011;44536;47.474;19.056;2024-02-26T02:51:59;12.23;;;6.50;;
58768;SDS011;44536;47.474;19.056;2024-02-26T02:55:01;15.23;;;10.10;;
58768;SDS011;44536;47.474;19.056;2024-02-26T02:58:04;13.30;;;7.80;;
58768;SDS011;44536;47.474;19.056;2024-02-26T03:01:06;15.88;;;8.45;;
58768;SDS011;44536;47.474;19.056;2024-02-26T03:04:09;14.95;;;8.80;;
58768;SDS011;44536;47.474;19.056;2024-02-26T03:07:11;19.55;;;9.48;;
58768;SDS011;44536;47.474;19.056;2024-02-26T03:10:13;17.87;;;9.10;;
58768;SDS011;44536;47.474;19.056;2024-02-26T03:13:15;17.37;;;8.10;;
58768;SDS011;44536;47.474;19.056;2024-02-26T03:16:17;17.67;;;9.15;;
58768;SDS011;44536;47.474;19.056;2024-02-26T03:19:19;13.32;;;7.00;;
58768;SDS011;44536;47.474;19.056;2024-02-26T03:22:22;15.90;;;8.00;;
58768;SDS011;44536;47.474;19.056;2024-02-26T03:25:23;14.80;;;8.48;;
58768;SDS011;44536;47.474;19.056;2024-02-26T03:28:26;15.02;;;8.52;;
58768;SDS011;44536;47.474;19.056;2024-02-26T03:31:27;13.05;;;6.57;;
58768;SDS011;44536;47.474;19.056;2024-02-26T03:34:30;17.40;;;10.05;;
58768;SDS011;44536;47.474;19.056;2024-02-26T03:37:41;13.27;;;7.97;;
58768;SDS011;44536;47.474;19.056;2024-02-26T03:40:43;19.12;;;8.02;;
58768;SDS011;44536;47.474;19.056;2024-02-26T03:43:45;16.73;;;9.13;;
58768;SDS011;44536;47.474;19.056;2024-02-26T03:46:47;13.48;;;9.00;;
58768;SDS011;44536;47.474;19.056;2024-02-26T03:49:49;14.98;;;9.70;;
58768;SDS011;44536;47.474;19.056;2024-02-26T03:52:51;11.68;;;7.43;;
58768;SDS011;44536;47.474;19.056;2024-02-26T03:55:53;12.68;;;7.45;;
58768;SDS011;44536;47.474;19.056;2024-02-26T04:01:59;12.23;;;7.07;;
58768;SDS011;44536;47.474;19.056;2024-02-26T04:05:03;17.20;;;8.68;;
58768;SDS011;44536;47.474;19.056;2024-02-26T04:08:06;13.90;;;8.40;;
58768;SDS011;44536;47.474;19.056;2024-02-26T04:11:09;15.20;;;7.50;;
58768;SDS011;44536;47.474;19.056;2024-02-26T04:14:11;16.00;;;7.70;;
58768;SDS011;44536;47.474;19.056;2024-02-26T04:17:14;14.05;;;8.85;;
58768;SDS011;44536;47.474;19.056;2024-02-26T04:20:16;15.00;;;8.43;;
58768;SDS011;44536;47.474;19.056;2024-02-26T04:23:19;14.53;;;8.70;;
58768;SDS011;44536;47.474;19.056;2024-02-26T04:26:21;14.27;;;8.18;;
58768;SDS011;44536;47.474;19.056;2024-02-26T04:29:23;13.90;;;7.75;;
58768;SDS011;44536;47.474;19.056;2024-02-26T04:32:25;14.73;;;7.22;;
58768;SDS011;44536;47.474;19.056;2024-02-26T04:35:27;15.35;;;8.15;;
58768;SDS011;44536;47.474;19.056;2024-02-26T04:38:29;18.65;;;7.55;;
58768;SDS011;44536;47.474;19.056;2024-02-26T04:41:31;12.02;;;7.72;;
58768;SDS011;44536;47.474;19.056;2024-02-26T04:44:33;13.18;;;7.82;;
58768;SDS011;44536;47.474;19.056;2024-02-26T04:47:35;13.25;;;7.65;;
58768;SDS011;44536;47.474;19.056;2024-02-26T04:50:37;14.93;;;7.80;;
58768;SDS011;44536;47.474;19.056;2024-02-26T04:53:40;13.30;;;7.25;;
58768;SDS011;44536;47.474;19.056;2024-02-26T04:56:42;10.85;;;6.60;;
58768;SDS011;44536;47.474;19.056;2024-02-26T04:59:44;14.23;;;8.07;;
58768;SDS011;44536;47.474;19.056;2024-02-26T05:05:50;13.00;;;7.60;;
58768;SDS011;44536;47.474;19.056;2024-02-26T05:08:52;14.13;;;7.47;;
58768;SDS011;44536;47.474;19.056;2024-02-26T05:11:54;11.27;;;6.90;;
58768;SDS011;44536;47.474;19.056;2024-02-26T05:14:56;11.27;;;6.78;;
58768;SDS011;44536;47.474;19.056;2024-02-26T05:17:58;13.88;;;7.95;;
58768;SDS011;44536;47.474;19.056;2024-02-26T05:21:01;11.18;;;7.05;;
58768;SDS011;44536;47.474;19.056;2024-02-26T05:24:03;15.35;;;6.78;;
58768;SDS011;44536;47.474;19.056;2024-02-26T05:27:05;14.87;;;7.18;;
58768;SDS011;44536;47.474;19.056;2024-02-26T05:30:07;12.95;;;7.53;;
58768;SDS011;44536;47.474;19.056;2024-02-26T05:33:09;13.10;;;7.43;;
58768;SDS011;44536;47.474;19.056;2024-02-26T05:36:18;12.20;;;7.30;;
58768;SDS011;44536;47.474;19.056;2024-02-26T05:39:20;14.40;;;7.55;;
58768;SDS011;44536;47.474;19.056;2024-02-26T05:42:22;16.17;;;9.65;;
58768;SDS011;44536;47.474;19.056;2024-02-26T05:45:24;17.08;;;8.20;;
58768;SDS011;44536;47.474;19.056;2024-02-26T05:48:27;16.83;;;7.65;;
58768;SDS011;44536;47.474;19.056;2024-02-26T05:51:29;15.95;;;10.45;;
58768;SDS011;44536;47.474;19.056;2024-02-26T05:54:32;18.07;;;8.97;;
58768;SDS011;44536;47.474;19.056;2024-02-26T05:57:34;12.82;;;8.18;;
58768;SDS011;44536;47.474;19.056;2024-02-26T06:00:36;17.67;;;10.05;;
58768;SDS011;44536;47.474;19.056;2024-02-26T06:03:39;15.70;;;8.05;;
58768;SDS011;44536;47.474;19.056;2024-02-26T06:06:41;16.25;;;9.23;;
58768;SDS011;44536;47.474;19.056;2024-02-26T06:09:45;15.45;;;7.68;;
58768;SDS011;44536;47.474;19.056;2024-02-26T06:12:47;15.23;;;7.07;;
58768;SDS011;44536;47.474;19.056;2024-02-26T06:15:49;13.25;;;8.35;;
58768;SDS011;44536;47.474;19.056;2024-02-26T06:18:51;17.92;;;9.20;;
58768;SDS011;44536;47.474;19.056;2024-02-26T06:21:54;16.10;;;8.23;;
58768;SDS011;44536;47.474;19.056;2024-02-26T06:24:56;16.50;;;8.25;;
58768;SDS011;44536;47.474;19.056;2024-02-26T06:27:58;15.93;;;7.65;;
58768;SDS011;44536;47.474;19.056;2024-02-26T06:31:00;15.93;;;8.10;;
58768;SDS011;44536;47.474;19.056;2024-02-26T06:34:02;16.48;;;9.75;;
58768;SDS011;44536;47.474;19.056;2024-02-26T06:37:05;15.05;;;8.00;;
58768;SDS011;44536;47.474;19.056;2024-02-26T06:40:08;19.53;;;10.57;;
58768;SDS011;44536;47.474;19.056;2024-02-26T06:43:10;15.30;;;8.67;;
58768;SDS011;44536;47.474;19.056;2024-02-26T06:46:13;17.73;;;10.52;;
58768;SDS011;44536;47.474;19.056;2024-02-26T06:49:15;15.43;;;9.73;;
58768;SDS011;44536;47.474;19.056;2024-02-26T06:52:18;20.05;;;9.43;;
58768;SDS011;44536;47.474;19.056;2024-02-26T06:55:20;16.55;;;7.12;;
58768;SDS011;44536;47.474;19.056;2024-02-26T06:58:23;15.50;;;8.50;;
58768;SDS011;44536;47.474;19.056;2024-02-26T07:01:25;16.30;;;8.45;;
58768;SDS011;44536;47.474;19.056;2024-02-26T07:04:27;15.93;;;8.40;;
58768;SDS011;44536;47.474;19.056;2024-02-26T07:07:29;13.50;;;7.28;;
58768;SDS011;44536;47.474;19.056;2024-02-26T07:10:31;11.75;;;8.30;;
58768;SDS011;44536;47.474;19.056;2024-02-26T07:13:34;12.90;;;8.32;;
58768;SDS011;44536;47.474;19.056;2024-02-26T07:16:36;12.90;;;7.50;;
58768;SDS011;44536;47.474;19.056;2024-02-26T07:19:38;18.17;;;8.90;;
58768;SDS011;44536;47.474;19.056;2024-02-26T07:22:41;17.83;;;9.68;;
58768;SDS011;44536;47.474;19.056;2024-02-26T07:25:44;18.00;;;12.73;;
58768;SDS011;44536;47.474;19.056;2024-02-26T07:28:49;16.37;;;10.15;;
58768;SDS011;44536;47.474;19.056;2024-02-26T07:31:51;17.23;;;10.18;;
58768;SDS011;44536;47.474;19.056;2024-02-26T07:34:53;18.45;;;10.98;;
58768;SDS011;44536;47.474;19.056;2024-02-26T07:37:55;21.02;;;11.45;;
58768;SDS011;44536;47.474;19.056;2024-02-26T07:40:58;19.12;;;11.15;;
58768;SDS011;44536;47.474;19.056;2024-02-26T07:44:04;19.67;;;11.50;;
58768;SDS011;44536;47.474;19.056;2024-02-26T07:47:07;18.40;;;10.83;;
58768;SDS011;44536;47.474;19.056;2024-02-26T07:50:09;18.50;;;9.27;;
58768;SDS011;44536;47.474;19.056;2024-02-26T07:53:11;17.27;;;11.77;;
58768;SDS011;44536;47.474;19.056;2024-02-26T07:56:13;20.85;;;11.98;;
58768;SDS011;44536;47.474;19.056;2024-02-26T07:59:15;17.23;;;10.80;;
58768;SDS011;44536;47.474;19.056;2024-02-26T08:02:17;20.15;;;11.48;;
58768;SDS011;44536;47.474;19.056;2024-02-26T08:05:20;17.05;;;11.48;;
58768;SDS011;44536;47.474;19.056;2024-02-26T08:08:22;23.27;;;11.12;;
58768;SDS011;44536;47.474;19.056;2024-02-26T08:11:24;23.75;;;14.07;;
58768;SDS011;44536;47.474;19.056;2024-02-26T08:14:26;23.27;;;14.18;;
58768;SDS011;44536;47.474;19.056;2024-02-26T08:17:29;21.02;;;12.82;;
58768;SDS011;44536;47.474;19.056;2024-02-26T08:20:31;24.52;;;16.20;;
58768;SDS011;44536;47.474;19.056;2024-02-26T08:23:35;25.58;;;14.75;;
58768;SDS011;44536;47.474;19.056;2024-02-26T08:26:37;28.15;;;13.73;;
58768;SDS011;44536;47.474;19.056;2024-02-26T08:29:39;21.10;;;12.40;;
58768;SDS011;44536;47.474;19.056;2024-02-26T08:32:45;25.50;;;14.57;;
58768;SDS011;44536;47.474;19.056;2024-02-26T08:35:59;21.45;;;12.98;;
58768;SDS011;44536;47.474;19.056;2024-02-26T08:39:01;23.58;;;14.30;;
58768;SDS011;44536;47.474;19.056;2024-02-26T08:42:04;21.60;;;11.88;;
58768;SDS011;44536;47.474;19.056;2024-02-26T08:45:07;23.77;;;14.10;;
58768;SDS011;44536;47.474;19.056;2024-02-26T08:48:09;19.55;;;11.15;;
58768;SDS011;44536;47.474;19.056;2024-02-26T08:51:11;22.87;;;14.63;;
58768;SDS011;44536;47.474;19.056;2024-02-26T08:54:15;24.77;;;14.85;;
58768;SDS011;44536;47.474;19.056;2024-02-26T08:57:17;22.75;;;12.27;;
58768;SDS011;44536;47.474;19.056;2024-02-26T09:00:19;20.23;;;12.18;;
58768;SDS011;44536;47.474;19.056;2024-02-26T09:03:22;23.77;;;13.23;;
58768;SDS011;44536;47.474;19.056;2024-02-26T09:06:25;24.43;;;14.87;;
58768;SDS011;44536;47.474;19.056;2024-02-26T09:09:29;30.80;;;16.27;;
58768;SDS011;44536;47.474;19.056;2024-02-26T09:12:32;22.05;;;12.95;;
58768;SDS011;44536;47.474;19.056;2024-02-26T09:15:35;23.27;;;13.80;;
58768;SDS011;44536;47.474;19.056;2024-02-26T09:18:38;21.20;;;12.95;;
58768;SDS011;44536;47.474;19.056;2024-02-26T09:21:44;18.12;;;11.50;;
58768;SDS011;44536;47.474;19.056;2024-02-26T09:24:46;21.95;;;14.27;;
58768;SDS011;44536;47.474;19.056;2024-02-26T09:27:48;20.50;;;14.45;;
58768;SDS011;44536;47.474;19.056;2024-02-26T09:30:50;22.80;;;16.60;;
58768;SDS011;44536;47.474;19.056;2024-02-26T09:33:53;25.75;;;14.18;;
58768;SDS011;44536;47.474;19.056;2024-02-26T09:40:05;21.65;;;13.90;;
58768;SDS011;44536;47.474;19.056;2024-02-26T09:43:14;23.60;;;14.60;;
58768;SDS011;44536;47.474;19.056;2024-02-26T09:46:17;23.50;;;13.32;;
58768;SDS011;44536;47.474;19.056;2024-02-26T09:49:22;20.75;;;13.60;;
58768;SDS011;44536;47.474;19.056;2024-02-26T09:52:25;23.08;;;14.15;;
58768;SDS011;44536;47.474;19.056;2024-02-26T09:55:28;22.00;;;14.85;;
58768;SDS011;44536;47.474;19.056;2024-02-26T09:58:30;22.10;;;12.70;;
58768;SDS011;44536;47.474;19.056;2024-02-26T10:01:33;22.07;;;13.57;;
58768;SDS011;44536;47.474;19.056;2024-02-26T10:07:38;25.40;;;12.75;;
58768;SDS011;44536;47.474;19.056;2024-02-26T10:10:42;25.85;;;15.23;;
58768;SDS011;44536;47.474;19.056;2024-02-26T10:13:44;24.10;;;13.52;;
58768;SDS011;44536;47.474;19.056;2024-02-26T10:16:46;24.02;;;14.52;;
58768;SDS011;44536;47.474;19.056;2024-02-26T10:19:49;26.17;;;12.93;;
58768;SDS011;44536;47.474;19.056;2024-02-26T10:22:53;21.98;;;12.52;;
58768;SDS011;44536;47.474;19.056;2024-02-26T10:25:55;19.27;;;11.60;;
58768;SDS011;44536;47.474;19.056;2024-02-26T10:28:59;21.45;;;13.25;;
58768;SDS011;44536;47.474;19.056;2024-02-26T10:32:01;22.02;;;13.27;;
58768;SDS011;44536;47.474;19.056;2024-02-26T10:35:07;21.20;;;13.57;;
58768;SDS011;44536;47.474;19.056;2024-02-26T10:38:09;22.80;;;12.63;;
58768;SDS011;44536;47.474;19.056;2024-02-26T10:41:15;18.75;;;11.15;;
58768;SDS011;44536;47.474;19.056;2024-02-26T10:44:17;18.40;;;11.32;;
58768;SDS011;44536;47.474;19.056;2024-02-26T10:47:21;19.17;;;12.65;;
58768;SDS011;44536;47.474;19.056;2024-02-26T10:50:23;21.35;;;12.80;;
58768;SDS011;44536;47.474;19.056;2024-02-26T10:53:27;18.77;;;10.00;;
58768;SDS011;44536;47.474;19.056;2024-02-26T10:56:30;16.00;;;10.30;;
58768;SDS011;44536;47.474;19.056;2024-02-26T10:59:39;18.58;;;12.20;;
58768;SDS011;44536;47.474;19.056;2024-02-26T11:02:47;20.60;;;12.68;;
58768;SDS011;44536;47.474;19.056;2024-02-26T11:05:50;17.33;;;11.50;;
58768;SDS011;44536;47.474;19.056;2024-02-26T11:08:53;15.45;;;10.55;;
58768;SDS011;44536;47.474;19.056;2024-02-26T11:11:57;17.42;;;10.15;;
58768;SDS011;44536;47.474;19.056;2024-02-26T11:14:59;17.30;;;9.63;;
58768;SDS011;44536;47.474;19.056;2024-02-26T11:18:06;16.02;;;9.13;;
58768;SDS011;44536;47.474;19.056;2024-02-26T11:21:10;15.15;;;10.23;;
58768;SDS011;44536;47.474;19.056;2024-02-26T11:24:13;15.50;;;8.30;;
58768;SDS011;44536;47.474;19.056;2024-02-26T11:27:16;15.63;;;8.57;;
58768;SDS011;44536;47.474;19.056;2024-02-26T11:30:19;13.68;;;8.05;;
58768;SDS011;44536;47.474;19.056;2024-02-26T11:33:22;12.30;;;8.13;;
58768;SDS011;44536;47.474;19.056;2024-02-26T11:36:24;15.55;;;7.95;;
58768;SDS011;44536;47.474;19.056;2024-02-26T11:39:27;12.57;;;7.82;;
58768;SDS011;44536;47.474;19.056;2024-02-26T11:42:29;13.53;;;8.60;;
58768;SDS011;44536;47.474;19.056;2024-02-26T11:48:41;14.40;;;8.48;;
58768;SDS011;44536;47.474;19.056;2024-02-26T11:51:43;13.70;;;9.68;;
58768;SDS011;44536;47.474;19.056;2024-02-26T11:54:53;14.93;;;7.87;;
58768;SDS011;44536;47.474;19.056;2024-02-26T11:57:55;13.15;;;7.85;;
58768;SDS011;44536;47.474;19.056;2024-02-26T12:00:58;12.57;;;8.45;;
58768;SDS011;44536;47.474;19.056;2024-02-26T12:04:05;13.57;;;8.88;;
58768;SDS011;44536;47.474;19.056;2024-02-26T12:07:07;18.42;;;8.27;;
58768;SDS011;44536;47.474;19.056;2024-02-26T12:10:23;12.00;;;7.10;;
58768;SDS011;44536;47.474;19.056;2024-02-26T12:13:30;14.60;;;7.95;;
58768;SDS011;44536;47.474;19.056;2024-02-26T12:19:37;10.07;;;4.72;;
58768;SDS011;44536;47.474;19.056;2024-02-26T12:22:45;10.25;;;6.15;;
58768;SDS011;44536;47.474;19.056;2024-02-26T12:25:51;9.45;;;5.03;;
58768;SDS011;44536;47.474;19.056;2024-02-26T12:28:53;8.15;;;4.47;;
58768;SDS011;44536;47.474;19.056;2024-02-26T12:31:55;8.75;;;5.03;;
58768;SDS011;44536;47.474;19.056;2024-02-26T12:34:57;9.27;;;4.60;;
58768;SDS011;44536;47.474;19.056;2024-02-26T12:38:00;10.63;;;5.32;;
58768;SDS011;44536;47.474;19.056;2024-02-26T12:41:03;11.25;;;5.70;;
58768;SDS011;44536;47.474;19.056;2024-02-26T12:44:05;10.20;;;5.60;;
58768;SDS011;44536;47.474;19.056;2024-02-26T12:47:09;8.85;;;5.93;;
58768;SDS011;44536;47.474;19.056;2024-02-26T12:50:12;10.93;;;6.82;;
58768;SDS011;44536;47.474;19.056;2024-02-26T12:53:15;7.93;;;4.53;;
58768;SDS011;44536;47.474;19.056;2024-02-26T12:56:17;9.05;;;4.80;;
58768;SDS011;44536;47.474;19.056;2024-02-26T12:59:19;8.40;;;4.90;;
58768;SDS011;44536;47.474;19.056;2024-02-26T13:02:21;8.48;;;4.05;;
58768;SDS011;44536;47.474;19.056;2024-02-26T13:05:24;9.55;;;5.80;;
58768;SDS011;44536;47.474;19.056;2024-02-26T13:08:27;7.05;;;4.00;;
58768;SDS011;44536;47.474;19.056;2024-02-26T13:11:29;7.60;;;4.53;;
58768;SDS011;44536;47.474;19.056;2024-02-26T13:14:35;9.73;;;5.10;;
58768;SDS011;44536;47.474;19.056;2024-02-26T13:17:38;8.95;;;4.37;;
58768;SDS011;44536;47.474;19.056;2024-02-26T13:20:40;9.68;;;6.32;;
58768;SDS011;44536;47.474;19.056;2024-02-26T13:23:51;7.50;;;4.85;;
58768;SDS011;44536;47.474;19.056;2024-02-26T13:26:54;7.57;;;4.62;;
58768;SDS011;44536;47.474;19.056;2024-02-26T13:30:03;7.32;;;4.50;;
58768;SDS011;44536;47.474;19.056;2024-02-26T13:33:09;9.30;;;5.05;;
58768;SDS011;44536;47.474;19.056;2024-02-26T13:36:12;10.75;;;6.68;;
58768;SDS011;44536;47.474;19.056;2024-02-26T13:39:24;8.68;;;5.62;;
58768;SDS011;44536;47.474;19.056;2024-02-26T13:42:27;7.45;;;5.32;;
58768;SDS011;44536;47.474;19.056;2024-02-26T13:45:29;8.30;;;4.85;;
58768;SDS011;44536;47.474;19.056;2024-02-26T13:48:38;8.23;;;5.93;;
58768;SDS011;44536;47.474;19.056;2024-02-26T13:51:41;9.77;;;5.75;;
58768;SDS011;44536;47.474;19.056;2024-02-26T13:54:43;9.65;;;5.95;;
58768;SDS011;44536;47.474;19.056;2024-02-26T13:57:48;9.38;;;5.57;;
58768;SDS011;44536;47.474;19.056;2024-02-26T14:00:51;10.13;;;6.72;;
58768;SDS011;44536;47.474;19.056;2024-02-26T14:06:59;8.95;;;5.78;;
58768;SDS011;44536;47.474;19.056;2024-02-26T14:10:01;9.88;;;6.45;;
58768;SDS011;44536;47.474;19.056;2024-02-26T14:13:04;8.82;;;6.10;;
58768;SDS011;44536;47.474;19.056;2024-02-26T14:16:06;8.13;;;5.28;;
58768;SDS011;44536;47.474;19.056;2024-02-26T14:19:08;11.52;;;7.50;;
58768;SDS011;44536;47.474;19.056;2024-02-26T14:22:14;8.25;;;6.05;;
58768;SDS011;44536;47.474;19.056;2024-02-26T14:25:17;8.98;;;6.20;;
58768;SDS011;44536;47.474;19.056;2024-02-26T14:28:19;11.30;;;6.62;;
58768;SDS011;44536;47.474;19.056;2024-02-26T14:31:29;12.20;;;7.57;;
58768;SDS011;44536;47.474;19.056;2024-02-26T14:34:32;10.82;;;7.35;;
58768;SDS011;44536;47.474;19.056;2024-02-26T14:37:34;10.07;;;7.05;;
58768;SDS011;44536;47.474;19.056;2024-02-26T14:40:39;11.55;;;6.50;;
58768;SDS011;44536;47.474;19.056;2024-02-26T14:43:40;11.18;;;7.55;;
58768;SDS011;44536;47.474;19.056;2024-02-26T14:46:48;11.10;;;6.10;;
58768;SDS011;44536;47.474;19.056;2024-02-26T14:49:50;10.45;;;5.60;;
58768;SDS011;44536;47.474;19.056;2024-02-26T14:52:53;13.25;;;8.75;;
58768;SDS011;44536;47.474;19.056;2024-02-26T14:55:55;10.95;;;6.18;;
58768;SDS011;44536;47.474;19.056;2024-02-26T14:58:58;11.02;;;6.12;;
58768;SDS011;44536;47.474;19.056;2024-02-26T15:02:00;11.50;;;5.68;;
58768;SDS011;44536;47.474;19.056;2024-02-26T15:05:02;10.85;;;6.03;;
58768;SDS011;44536;47.474;19.056;2024-02-26T15:08:05;10.75;;;6.57;;
58768;SDS011;44536;47.474;19.056;2024-02-26T15:11:11;11.80;;;7.37;;
58768;SDS011;44536;47.474;19.056;2024-02-26T15:14:13;12.05;;;6.10;;
58768;SDS011;44536;47.474;19.056;2024-02-26T15:17:17;9.07;;;5.18;;
58768;SDS011;44536;47.474;19.056;2024-02-26T15:20:19;11.10;;;5.32;;
58768;SDS011;44536;47.474;19.056;2024-02-26T15:23:21;8.23;;;5.50;;
58768;SDS011;44536;47.474;19.056;2024-02-26T15:26:23;9.15;;;6.57;;
58768;SDS011;44536;47.474;19.056;2024-02-26T15:29:26;16.75;;;6.22;;
58768;SDS011;44536;47.474;19.056;2024-02-26T15:32:28;10.68;;;6.75;;
58768;SDS011;44536;47.474;19.056;2024-02-26T15:35:30;14.55;;;5.70;;
58768;SDS011;44536;47.474;19.056;2024-02-26T15:38:32;13.30;;;6.32;;
58768;SDS011;44536;47.474;19.056;2024-02-26T15:41:35;11.68;;;7.85;;
58768;SDS011;44536;47.474;19.056;2024-02-26T15:44:37;12.02;;;6.53;;
58768;SDS011;44536;47.474;19.056;2024-02-26T15:47:41;16.30;;;7.07;;
58768;SDS011;44536;47.474;19.056;2024-02-26T15:53:45;15.63;;;8.95;;
58768;SDS011;44536;47.474;19.056;2024-02-26T15:56:47;11.45;;;6.12;;
58768;SDS011;44536;47.474;19.056;2024-02-26T15:59:52;22.30;;;7.90;;
58768;SDS011;44536;47.474;19.056;2024-02-26T16:05:57;14.90;;;6.55;;
58768;SDS011;44536;47.474;19.056;2024-02-26T16:08:59;10.90;;;7.35;;
58768;SDS011;44536;47.474;19.056;2024-02-26T16:12:03;13.25;;;7.90;;
58768;SDS011;44536;47.474;19.056;2024-02-26T16:15:07;12.80;;;7.45;;
58768;SDS011;44536;47.474;19.056;2024-02-26T16:18:11;14.00;;;7.45;;
58768;SDS011;44536;47.474;19.056;2024-02-26T16:21:13;14.18;;;7.90;;
58768;SDS011;44536;47.474;19.056;2024-02-26T16:24:15;15.65;;;8.30;;
58768;SDS011;44536;47.474;19.056;2024-02-26T16:27:17;11.88;;;8.32;;
58768;SDS011;44536;47.474;19.056;2024-02-26T16:30:20;15.90;;;7.43;;
58768;SDS011;44536;47.474;19.056;2024-02-26T16:33:22;10.73;;;7.40;;
58768;SDS011;44536;47.474;19.056;2024-02-26T16:36:26;16.83;;;8.73;;
58768;SDS011;44536;47.474;19.056;2024-02-26T16:39:29;12.48;;;8.48;;
58768;SDS011;44536;47.474;19.056;2024-02-26T16:42:31;15.65;;;9.70;;
58768;SDS011;44536;47.474;19.056;2024-02-26T16:45:33;15.13;;;8.48;;
58768;SDS011;44536;47.474;19.056;2024-02-26T16:48:36;15.70;;;9.07;;
58768;SDS011;44536;47.474;19.056;2024-02-26T16:51:38;17.65;;;8.88;;
58768;SDS011;44536;47.474;19.056;2024-02-26T16:54:41;14.10;;;6.97;;
58768;SDS011;44536;47.474;19.056;2024-02-26T16:57:42;13.00;;;8.68;;
58768;SDS011;44536;47.474;19.056;2024-02-26T17:00:45;16.15;;;10.68;;
58768;SDS011;44536;47.474;19.056;2024-02-26T17:03:47;15.98;;;8.95;;
58768;SDS011;44536;47.474;19.056;2024-02-26T17:06:49;18.42;;;9.40;;
58768;SDS011;44536;47.474;19.056;2024-02-26T17:09:51;15.68;;;8.35;;
58768;SDS011;44536;47.474;19.056;2024-02-26T17:12:54;13.68;;;9.57;;
58768;SDS011;44536;47.474;19.056;2024-02-26T17:15:56;17.20;;;10.68;;
58768;SDS011;44536;47.474;19.056;2024-02-26T17:18:58;20.05;;;11.43;;
58768;SDS011;44536;47.474;19.056;2024-02-26T17:22:00;17.58;;;10.77;;
58768;SDS011;44536;47.474;19.056;2024-02-26T17:25:03;20.88;;;9.73;;
58768;SDS011;44536;47.474;19.056;2024-02-26T17:28:05;19.00;;;10.98;;
58768;SDS011;44536;47.474;19.056;2024-02-26T17:31:07;16.33;;;10.93;;
58768;SDS011;44536;47.474;19.056;2024-02-26T17:34:09;20.48;;;11.10;;
58768;SDS011;44536;47.474;19.056;2024-02-26T17:37:12;17.50;;;8.68;;
58768;SDS011;44536;47.474;19.056;2024-02-26T17:40:14;23.42;;;9.13;;
58768;SDS011;44536;47.474;19.056;2024-02-26T17:43:17;16.95;;;10.10;;
58768;SDS011;44536;47.474;19.056;2024-02-26T17:46:19;23.25;;;10.88;;
58768;SDS011;44536;47.474;19.056;2024-02-26T17:49:22;15.38;;;10.70;;
58768;SDS011;44536;47.474;19.056;2024-02-26T17:55:28;25.62;;;15.48;;
58768;SDS011;44536;47.474;19.056;2024-02-26T17:58:30;20.95;;;9.95;;
58768;SDS011;44536;47.474;19.056;2024-02-26T18:01:33;21.05;;;9.48;;
58768;SDS011;44536;47.474;19.056;2024-02-26T18:04:35;18.52;;;10.80;;
58768;SDS011;44536;47.474;19.056;2024-02-26T18:07:37;25.98;;;10.85;;
58768;SDS011;44536;47.474;19.056;2024-02-26T18:10:40;14.73;;;10.98;;
58768;SDS011;44536;47.474;19.056;2024-02-26T18:13:41;16.95;;;10.75;;
58768;SDS011;44536;47.474;19.056;2024-02-26T18:16:47;17.08;;;11.40;;